sensor_id;sensor_type;location;lat;lon;timestamp;noise_LAeq;noise_LA_min;noise_LA_max;noise_LA01;noise_LA95
36217;Laerm;22259;48.792;8.964;2023-08-17T00:00:44;41.46;38.67;56.48;;
36217;Laerm;22259;48.792;8.964;2023-08-17T00:03:09;41.18;38.49;55.79;;
36217;Laerm;22259;48.792;8.964;2023-08-17T00:05:35;43.58;39.64;58.51;;
36217;Laerm;22259;48.792;8.964;2023-08-17T00:08:00;42.92;39.17;57.11;;
36217;Laerm;22259;48.792;8.964;2023-08-17T00:10:27;41.57;38.74;57.75;;
36217;Laerm;22259;48.792;8.964;2023-08-17T00:12:53;41.27;38.45;57.28;;
36217;Laerm;22259;48.792;8.964;2023-08-17T00:15:18;41.48;38.63;53.73;;
36217;Laerm;22259;48.792;8.964;2023-08-17T00:17:44;40.94;38.41;52.13;;
36217;Laerm;22259;48.792;8.964;2023-08-17T00:20:09;40.74;37.79;55.19;;
36217;Laerm;22259;48.792;8.964;2023-08-17T00:22:35;40.83;37.83;51.74;;
36217;Laerm;22259;48.792;8.964;2023-08-17T00:25:00;40.56;37.79;55.22;;
36217;Laerm;22259;48.792;8.964;2023-08-17T00:27:26;40.52;38.17;54.13;;
36217;Laerm;22259;48.792;8.964;2023-08-17T00:29:51;40.86;38.17;53.52;;
36217;Laerm;22259;48.792;8.964;2023-08-17T00:32:16;40.95;37.83;54.58;;
36217;Laerm;22259;48.792;8.964;2023-08-17T00:34:42;40.95;38.05;57.51;;
36217;Laerm;22259;48.792;8.964;2023-08-17T00:37:07;40.90;37.92;53.57;;
36217;Laerm;22259;48.792;8.964;2023-08-17T00:39:33;40.49;37.88;51.60;;
36217;Laerm;22259;48.792;8.964;2023-08-17T00:41:58;40.60;38.09;56.15;;
36217;Laerm;22259;48.792;8.964;2023-08-17T00:44:24;40.80;37.52;51.42;;
36217;Laerm;22259;48.792;8.964;2023-08-17T00:46:49;40.36;37.66;52.92;;
36217;Laerm;22259;48.792;8.964;2023-08-17T00:49:15;40.80;37.88;54.30;;
36217;Laerm;22259;48.792;8.964;2023-08-17T00:51:40;41.71;37.75;51.22;;
36217;Laerm;22259;48.792;8.964;2023-08-17T00:54:06;40.66;38.01;51.58;;
36217;Laerm;22259;48.792;8.964;2023-08-17T00:56:32;41.33;38.29;60.39;;
36217;Laerm;22259;48.792;8.964;2023-08-17T00:58:57;41.14;38.33;58.04;;
36217;Laerm;22259;48.792;8.964;2023-08-17T01:01:23;41.33;38.33;52.57;;
36217;Laerm;22259;48.792;8.964;2023-08-17T01:03:49;41.94;38.78;69.02;;
36217;Laerm;22259;48.792;8.964;2023-08-17T01:06:14;41.19;38.43;57.38;;
36217;Laerm;22259;48.792;8.964;2023-08-17T01:08:39;41.02;38.49;52.01;;
36217;Laerm;22259;48.792;8.964;2023-08-17T01:11:25;41.07;38.01;64.79;;
36217;Laerm;22259;48.792;8.964;2023-08-17T01:13:57;40.78;38.33;52.28;;
36217;Laerm;22259;48.792;8.964;2023-08-17T01:16:27;40.87;38.25;50.17;;
36217;Laerm;22259;48.792;8.964;2023-08-17T01:18:53;40.67;38.21;51.00;;
36217;Laerm;22259;48.792;8.964;2023-08-17T01:21:20;41.33;38.78;50.53;;
36217;Laerm;22259;48.792;8.964;2023-08-17T01:23:48;41.82;39.12;58.07;;
36217;Laerm;22259;48.792;8.964;2023-08-17T01:26:14;41.91;38.74;47.31;;
36217;Laerm;22259;48.792;8.964;2023-08-17T01:28:44;41.43;39.05;53.40;;
36217;Laerm;22259;48.792;8.964;2023-08-17T01:31:30;42.06;38.78;55.48;;
36217;Laerm;22259;48.792;8.964;2023-08-17T01:34:01;41.22;38.02;52.15;;
36217;Laerm;22259;48.792;8.964;2023-08-17T01:36:30;41.52;38.85;59.63;;
36217;Laerm;22259;48.792;8.964;2023-08-17T01:38:57;41.08;38.17;49.80;;
36217;Laerm;22259;48.792;8.964;2023-08-17T01:41:24;40.65;38.21;50.84;;
36217;Laerm;22259;48.792;8.964;2023-08-17T01:43:51;40.67;38.25;55.90;;
36217;Laerm;22259;48.792;8.964;2023-08-17T01:46:17;40.55;37.83;50.04;;
36217;Laerm;22259;48.792;8.964;2023-08-17T01:48:43;40.37;37.88;56.16;;
36217;Laerm;22259;48.792;8.964;2023-08-17T01:51:09;40.40;37.75;53.07;;
36217;Laerm;22259;48.792;8.964;2023-08-17T01:53:35;40.45;38.17;55.26;;
36217;Laerm;22259;48.792;8.964;2023-08-17T01:56:00;40.52;38.02;44.81;;
36217;Laerm;22259;48.792;8.964;2023-08-17T01:58:25;40.32;37.70;52.96;;
36217;Laerm;22259;48.792;8.964;2023-08-17T02:00:51;53.50;38.29;70.92;;
36217;Laerm;22259;48.792;8.964;2023-08-17T02:03:16;40.91;38.25;57.30;;
36217;Laerm;22259;48.792;8.964;2023-08-17T02:05:45;53.73;38.09;71.35;;
36217;Laerm;22259;48.792;8.964;2023-08-17T02:08:10;40.19;37.37;54.08;;
36217;Laerm;22259;48.792;8.964;2023-08-17T02:10:36;39.86;37.27;49.90;;
36217;Laerm;22259;48.792;8.964;2023-08-17T02:13:01;40.18;37.61;48.42;;
36217;Laerm;22259;48.792;8.964;2023-08-17T02:15:27;40.16;37.32;58.32;;
36217;Laerm;22259;48.792;8.964;2023-08-17T02:17:52;39.96;37.56;52.34;;
36217;Laerm;22259;48.792;8.964;2023-08-17T02:20:17;39.68;36.74;55.62;;
36217;Laerm;22259;48.792;8.964;2023-08-17T02:22:43;39.92;37.37;51.64;;
36217;Laerm;22259;48.792;8.964;2023-08-17T02:25:08;40.03;37.66;51.61;;
36217;Laerm;22259;48.792;8.964;2023-08-17T02:27:34;40.34;37.32;51.67;;
36217;Laerm;22259;48.792;8.964;2023-08-17T02:29:59;41.35;37.42;58.76;;
36217;Laerm;22259;48.792;8.964;2023-08-17T02:32:25;39.75;37.12;47.49;;
36217;Laerm;22259;48.792;8.964;2023-08-17T02:34:50;40.47;37.88;55.56;;
36217;Laerm;22259;48.792;8.964;2023-08-17T02:37:15;40.01;37.66;46.66;;
36217;Laerm;22259;48.792;8.964;2023-08-17T02:39:41;40.30;37.47;48.83;;
36217;Laerm;22259;48.792;8.964;2023-08-17T02:42:06;39.99;37.42;56.90;;
36217;Laerm;22259;48.792;8.964;2023-08-17T02:44:32;40.27;37.02;57.34;;
36217;Laerm;22259;48.792;8.964;2023-08-17T02:46:57;53.74;37.62;68.88;;
36217;Laerm;22259;48.792;8.964;2023-08-17T02:49:22;40.06;37.02;49.31;;
36217;Laerm;22259;48.792;8.964;2023-08-17T02:51:48;39.98;37.37;49.47;;
36217;Laerm;22259;48.792;8.964;2023-08-17T02:54:13;39.93;36.96;50.39;;
36217;Laerm;22259;48.792;8.964;2023-08-17T02:56:38;40.11;37.52;53.56;;
36217;Laerm;22259;48.792;8.964;2023-08-17T02:59:04;45.86;37.07;62.66;;
36217;Laerm;22259;48.792;8.964;2023-08-17T03:01:29;60.99;35.87;74.77;;
36217;Laerm;22259;48.792;8.964;2023-08-17T03:03:56;41.42;36.74;48.55;;
36217;Laerm;22259;48.792;8.964;2023-08-17T03:06:21;40.77;37.75;48.56;;
36217;Laerm;22259;48.792;8.964;2023-08-17T03:08:46;51.49;38.01;68.27;;
36217;Laerm;22259;48.792;8.964;2023-08-17T03:11:12;40.13;37.70;46.76;;
36217;Laerm;22259;48.792;8.964;2023-08-17T03:13:37;40.33;37.75;54.26;;
36217;Laerm;22259;48.792;8.964;2023-08-17T03:16:03;54.55;37.83;70.75;;
36217;Laerm;22259;48.792;8.964;2023-08-17T03:18:28;40.18;37.70;53.96;;
36217;Laerm;22259;48.792;8.964;2023-08-17T03:20:53;40.28;37.96;46.70;;
36217;Laerm;22259;48.792;8.964;2023-08-17T03:23:19;40.29;37.42;51.82;;
36217;Laerm;22259;48.792;8.964;2023-08-17T03:25:44;40.21;37.61;46.05;;
36217;Laerm;22259;48.792;8.964;2023-08-17T03:28:11;40.72;37.66;58.44;;
36217;Laerm;22259;48.792;8.964;2023-08-17T03:30:36;55.03;38.09;72.41;;
36217;Laerm;22259;48.792;8.964;2023-08-17T03:33:02;43.61;38.29;51.25;;
36217;Laerm;22259;48.792;8.964;2023-08-17T03:35:27;51.16;37.52;65.80;;
36217;Laerm;22259;48.792;8.964;2023-08-17T03:37:52;50.43;38.13;64.22;;
36217;Laerm;22259;48.792;8.964;2023-08-17T03:40:18;40.17;37.70;47.53;;
36217;Laerm;22259;48.792;8.964;2023-08-17T03:42:43;40.30;37.79;51.00;;
36217;Laerm;22259;48.792;8.964;2023-08-17T03:45:08;53.31;37.66;71.35;;
36217;Laerm;22259;48.792;8.964;2023-08-17T03:47:34;49.72;36.91;67.49;;
36217;Laerm;22259;48.792;8.964;2023-08-17T03:49:59;40.27;37.75;44.32;;
36217;Laerm;22259;48.792;8.964;2023-08-17T03:52:25;40.23;37.70;50.05;;
36217;Laerm;22259;48.792;8.964;2023-08-17T03:54:50;40.34;37.02;49.68;;
36217;Laerm;22259;48.792;8.964;2023-08-17T03:57:15;40.40;38.09;49.59;;
36217;Laerm;22259;48.792;8.964;2023-08-17T03:59:41;52.38;38.29;66.78;;
36217;Laerm;22259;48.792;8.964;2023-08-17T04:02:06;51.76;38.52;71.22;;
36217;Laerm;22259;48.792;8.964;2023-08-17T04:04:31;40.66;37.88;51.88;;
36217;Laerm;22259;48.792;8.964;2023-08-17T04:06:57;40.60;38.09;52.28;;
36217;Laerm;22259;48.792;8.964;2023-08-17T04:09:22;40.82;38.13;48.77;;
36217;Laerm;22259;48.792;8.964;2023-08-17T04:11:48;40.93;38.29;50.14;;
36217;Laerm;22259;48.792;8.964;2023-08-17T04:14:13;54.72;38.67;71.26;;
36217;Laerm;22259;48.792;8.964;2023-08-17T04:16:39;52.52;38.88;67.69;;
36217;Laerm;22259;48.792;8.964;2023-08-17T04:19:04;43.78;38.67;67.94;;
36217;Laerm;22259;48.792;8.964;2023-08-17T04:21:33;41.33;38.60;53.93;;
36217;Laerm;22259;48.792;8.964;2023-08-17T04:23:58;41.92;39.08;54.66;;
36217;Laerm;22259;48.792;8.964;2023-08-17T04:26:24;41.64;39.18;52.96;;
36217;Laerm;22259;48.792;8.964;2023-08-17T04:28:49;42.82;39.34;64.66;;
36217;Laerm;22259;48.792;8.964;2023-08-17T04:31:15;54.26;39.34;69.50;;
36217;Laerm;22259;48.792;8.964;2023-08-17T04:33:42;41.71;39.05;49.68;;
36217;Laerm;22259;48.792;8.964;2023-08-17T04:36:07;41.25;38.98;49.66;;
36217;Laerm;22259;48.792;8.964;2023-08-17T04:38:33;59.74;38.81;75.06;;
36217;Laerm;22259;48.792;8.964;2023-08-17T04:40:58;41.25;38.92;57.57;;
36217;Laerm;22259;48.792;8.964;2023-08-17T04:43:23;41.51;38.88;56.16;;
36217;Laerm;22259;48.792;8.964;2023-08-17T04:45:49;54.34;39.21;70.68;;
36217;Laerm;22259;48.792;8.964;2023-08-17T04:48:15;52.11;38.78;65.13;;
36217;Laerm;22259;48.792;8.964;2023-08-17T04:50:40;41.55;39.21;48.37;;
36217;Laerm;22259;48.792;8.964;2023-08-17T04:53:05;41.77;38.74;47.38;;
36217;Laerm;22259;48.792;8.964;2023-08-17T04:55:31;41.93;38.98;53.25;;
36217;Laerm;22259;48.792;8.964;2023-08-17T04:57:57;41.63;38.56;54.98;;
36217;Laerm;22259;48.792;8.964;2023-08-17T05:00:22;54.75;39.25;71.42;;
36217;Laerm;22259;48.792;8.964;2023-08-17T05:02:53;50.55;38.98;65.61;;
36217;Laerm;22259;48.792;8.964;2023-08-17T05:05:18;41.30;38.85;49.43;;
36217;Laerm;22259;48.792;8.964;2023-08-17T05:07:43;41.35;38.98;48.36;;
36217;Laerm;22259;48.792;8.964;2023-08-17T05:10:09;41.71;38.37;48.42;;
36217;Laerm;22259;48.792;8.964;2023-08-17T05:12:34;42.49;38.92;56.52;;
36217;Laerm;22259;48.792;8.964;2023-08-17T05:15:00;54.79;39.25;70.97;;
36217;Laerm;22259;48.792;8.964;2023-08-17T05:17:25;52.17;39.43;69.44;;
36217;Laerm;22259;48.792;8.964;2023-08-17T05:19:50;42.93;38.88;59.46;;
36217;Laerm;22259;48.792;8.964;2023-08-17T05:22:16;41.73;38.95;53.07;;
36217;Laerm;22259;48.792;8.964;2023-08-17T05:24:42;42.25;38.63;58.68;;
36217;Laerm;22259;48.792;8.964;2023-08-17T05:27:07;43.72;39.31;52.48;;
36217;Laerm;22259;48.792;8.964;2023-08-17T05:29:33;52.49;39.46;68.46;;
36217;Laerm;22259;48.792;8.964;2023-08-17T05:31:58;41.63;38.78;50.96;;
36217;Laerm;22259;48.792;8.964;2023-08-17T05:34:24;50.96;38.52;68.99;;
36217;Laerm;22259;48.792;8.964;2023-08-17T05:36:49;45.73;39.64;56.24;;
36217;Laerm;22259;48.792;8.964;2023-08-17T05:39:14;42.43;39.70;47.74;;
36217;Laerm;22259;48.792;8.964;2023-08-17T05:41:40;41.98;39.21;48.91;;
36217;Laerm;22259;48.792;8.964;2023-08-17T05:44:05;42.57;39.81;58.65;;
36217;Laerm;22259;48.792;8.964;2023-08-17T05:46:32;56.56;39.92;69.84;;
36217;Laerm;22259;48.792;8.964;2023-08-17T05:48:57;42.89;40.13;58.43;;
36217;Laerm;22259;48.792;8.964;2023-08-17T05:51:24;42.73;40.69;51.35;;
36217;Laerm;22259;48.792;8.964;2023-08-17T05:53:49;42.76;40.33;49.20;;
36217;Laerm;22259;48.792;8.964;2023-08-17T05:56:15;43.69;39.52;60.27;;
36217;Laerm;22259;48.792;8.964;2023-08-17T05:58:40;43.52;39.61;58.78;;
36217;Laerm;22259;48.792;8.964;2023-08-17T06:01:06;55.87;39.08;71.24;;
36217;Laerm;22259;48.792;8.964;2023-08-17T06:03:32;41.75;39.12;49.38;;
36217;Laerm;22259;48.792;8.964;2023-08-17T06:05:57;42.41;39.52;57.54;;
36217;Laerm;22259;48.792;8.964;2023-08-17T06:08:23;43.30;40.16;57.11;;
36217;Laerm;22259;48.792;8.964;2023-08-17T06:10:48;42.20;39.61;50.67;;
36217;Laerm;22259;48.792;8.964;2023-08-17T06:13:13;43.11;39.94;63.00;;
36217;Laerm;22259;48.792;8.964;2023-08-17T06:15:39;53.49;39.02;70.50;;
36217;Laerm;22259;48.792;8.964;2023-08-17T06:18:04;52.76;39.15;66.66;;
36217;Laerm;22259;48.792;8.964;2023-08-17T06:20:30;42.05;38.63;59.61;;
36217;Laerm;22259;48.792;8.964;2023-08-17T06:22:55;42.00;39.12;46.43;;
36217;Laerm;22259;48.792;8.964;2023-08-17T06:25:21;41.77;39.25;56.92;;
36217;Laerm;22259;48.792;8.964;2023-08-17T06:27:48;41.98;39.12;47.37;;
36217;Laerm;22259;48.792;8.964;2023-08-17T06:30:13;51.10;39.49;67.72;;
36217;Laerm;22259;48.792;8.964;2023-08-17T06:32:39;51.74;39.40;69.99;;
36217;Laerm;22259;48.792;8.964;2023-08-17T06:35:04;41.40;38.33;53.02;;
36217;Laerm;22259;48.792;8.964;2023-08-17T06:37:30;42.07;39.21;58.23;;
36217;Laerm;22259;48.792;8.964;2023-08-17T06:39:55;42.56;39.40;52.87;;
36217;Laerm;22259;48.792;8.964;2023-08-17T06:42:21;46.88;39.78;67.40;;
36217;Laerm;22259;48.792;8.964;2023-08-17T06:44:46;55.22;39.61;72.26;;
36217;Laerm;22259;48.792;8.964;2023-08-17T06:47:12;52.39;39.34;67.78;;
36217;Laerm;22259;48.792;8.964;2023-08-17T06:49:37;43.67;39.43;61.74;;
36217;Laerm;22259;48.792;8.964;2023-08-17T06:52:02;42.57;39.43;60.02;;
36217;Laerm;22259;48.792;8.964;2023-08-17T06:54:28;42.63;39.02;48.85;;
36217;Laerm;22259;48.792;8.964;2023-08-17T06:56:53;43.92;39.49;72.65;;
36217;Laerm;22259;48.792;8.964;2023-08-17T06:59:19;45.26;39.43;64.06;;
36217;Laerm;22259;48.792;8.964;2023-08-17T07:01:44;55.15;40.16;70.11;;
36217;Laerm;22259;48.792;8.964;2023-08-17T07:04:09;45.13;39.64;54.44;;
36217;Laerm;22259;48.792;8.964;2023-08-17T07:06:35;43.35;40.73;48.94;;
36217;Laerm;22259;48.792;8.964;2023-08-17T07:09:00;44.06;41.82;55.68;;
36217;Laerm;22259;48.792;8.964;2023-08-17T07:11:25;44.28;41.81;52.39;;
36217;Laerm;22259;48.792;8.964;2023-08-17T07:13:51;43.01;39.37;50.32;;
36217;Laerm;22259;48.792;8.964;2023-08-17T07:16:16;55.72;39.58;68.21;;
36217;Laerm;22259;48.792;8.964;2023-08-17T07:18:42;42.45;39.37;59.46;;
36217;Laerm;22259;48.792;8.964;2023-08-17T07:21:07;44.00;39.75;54.80;;
36217;Laerm;22259;48.792;8.964;2023-08-17T07:23:32;41.91;38.25;49.74;;
36217;Laerm;22259;48.792;8.964;2023-08-17T07:25:58;42.57;39.64;51.67;;
36217;Laerm;22259;48.792;8.964;2023-08-17T07:28:23;42.33;39.55;44.66;;
36217;Laerm;22259;48.792;8.964;2023-08-17T07:30:49;53.81;39.31;70.34;;
36217;Laerm;22259;48.792;8.964;2023-08-17T07:33:14;49.04;39.34;64.59;;
36217;Laerm;22259;48.792;8.964;2023-08-17T07:35:40;62.19;38.98;87.05;;
36217;Laerm;22259;48.792;8.964;2023-08-17T07:38:05;52.61;39.55;66.10;;
36217;Laerm;22259;48.792;8.964;2023-08-17T07:40:30;42.29;40.13;46.56;;
36217;Laerm;22259;48.792;8.964;2023-08-17T07:42:56;42.52;39.61;46.38;;
36217;Laerm;22259;48.792;8.964;2023-08-17T07:45:21;54.53;40.85;72.03;;
36217;Laerm;22259;48.792;8.964;2023-08-17T07:47:47;53.72;40.38;69.47;;
36217;Laerm;22259;48.792;8.964;2023-08-17T07:50:12;43.22;39.52;52.59;;
36217;Laerm;22259;48.792;8.964;2023-08-17T07:52:37;43.19;40.00;56.27;;
36217;Laerm;22259;48.792;8.964;2023-08-17T07:55:03;42.84;39.64;53.68;;
36217;Laerm;22259;48.792;8.964;2023-08-17T07:57:28;42.41;39.87;50.47;;
36217;Laerm;22259;48.792;8.964;2023-08-17T07:59:54;53.96;40.11;70.48;;
36217;Laerm;22259;48.792;8.964;2023-08-17T08:02:19;49.15;40.36;63.02;;
36217;Laerm;22259;48.792;8.964;2023-08-17T08:04:45;42.18;39.78;51.06;;
36217;Laerm;22259;48.792;8.964;2023-08-17T08:07:10;42.44;39.95;47.96;;
36217;Laerm;22259;48.792;8.964;2023-08-17T08:09:36;42.22;39.61;49.21;;
36217;Laerm;22259;48.792;8.964;2023-08-17T08:12:01;42.87;39.67;49.86;;
36217;Laerm;22259;48.792;8.964;2023-08-17T08:14:27;50.09;40.48;68.95;;
36217;Laerm;22259;48.792;8.964;2023-08-17T08:16:52;55.65;40.08;68.83;;
36217;Laerm;22259;48.792;8.964;2023-08-17T08:19:18;42.88;40.18;46.09;;
36217;Laerm;22259;48.792;8.964;2023-08-17T08:21:43;42.05;39.73;44.42;;
36217;Laerm;22259;48.792;8.964;2023-08-17T08:24:08;42.38;39.84;54.49;;
36217;Laerm;22259;48.792;8.964;2023-08-17T08:26:34;45.54;38.33;57.43;;
36217;Laerm;22259;48.792;8.964;2023-08-17T08:28:59;42.92;39.28;67.45;;
36217;Laerm;22259;48.792;8.964;2023-08-17T08:31:25;52.65;39.34;68.54;;
36217;Laerm;22259;48.792;8.964;2023-08-17T08:33:50;50.74;39.34;66.32;;
36217;Laerm;22259;48.792;8.964;2023-08-17T08:36:18;42.34;39.58;46.98;;
36217;Laerm;22259;48.792;8.964;2023-08-17T08:38:43;55.53;39.64;74.65;;
36217;Laerm;22259;48.792;8.964;2023-08-17T08:41:08;42.69;39.43;56.79;;
36217;Laerm;22259;48.792;8.964;2023-08-17T08:43:34;42.70;40.03;46.34;;
36217;Laerm;22259;48.792;8.964;2023-08-17T08:46:00;56.30;39.55;68.20;;
36217;Laerm;22259;48.792;8.964;2023-08-17T08:48:26;43.02;40.16;53.16;;
36217;Laerm;22259;48.792;8.964;2023-08-17T08:50:51;42.68;39.92;54.75;;
36217;Laerm;22259;48.792;8.964;2023-08-17T08:53:20;42.31;39.31;46.06;;
36217;Laerm;22259;48.792;8.964;2023-08-17T08:55:53;53.47;39.70;82.32;;
36217;Laerm;22259;48.792;8.964;2023-08-17T08:58:19;42.86;39.92;58.81;;
36217;Laerm;22259;48.792;8.964;2023-08-17T09:00:46;54.28;39.31;68.51;;
36217;Laerm;22259;48.792;8.964;2023-08-17T09:03:15;45.71;40.38;61.46;;
36217;Laerm;22259;48.792;8.964;2023-08-17T09:05:42;57.44;38.81;73.74;;
36217;Laerm;22259;48.792;8.964;2023-08-17T09:08:09;41.95;38.71;55.51;;
36217;Laerm;22259;48.792;8.964;2023-08-17T09:10:36;41.79;39.05;50.47;;
36217;Laerm;22259;48.792;8.964;2023-08-17T09:13:03;42.04;38.98;54.30;;
36217;Laerm;22259;48.792;8.964;2023-08-17T09:15:28;54.25;39.49;70.08;;
36217;Laerm;22259;48.792;8.964;2023-08-17T09:17:53;53.06;39.58;67.64;;
36217;Laerm;22259;48.792;8.964;2023-08-17T09:20:41;42.89;39.15;54.65;;
36217;Laerm;22259;48.792;8.964;2023-08-17T09:23:13;44.97;39.34;67.14;;
36217;Laerm;22259;48.792;8.964;2023-08-17T09:25:39;41.92;38.92;61.24;;
36217;Laerm;22259;48.792;8.964;2023-08-17T09:28:11;42.02;39.21;52.95;;
36217;Laerm;22259;48.792;8.964;2023-08-17T09:31:01;51.81;39.21;69.57;;
36217;Laerm;22259;48.792;8.964;2023-08-17T09:33:29;50.45;38.93;68.96;;
36217;Laerm;22259;48.792;8.964;2023-08-17T09:35:55;41.97;39.21;53.34;;
36217;Laerm;22259;48.792;8.964;2023-08-17T09:38:21;42.72;39.64;53.09;;
36217;Laerm;22259;48.792;8.964;2023-08-17T09:40:47;42.72;39.28;55.62;;
36217;Laerm;22259;48.792;8.964;2023-08-17T09:43:13;42.58;39.34;53.31;;
36217;Laerm;22259;48.792;8.964;2023-08-17T09:45:39;55.36;39.61;71.33;;
36217;Laerm;22259;48.792;8.964;2023-08-17T09:48:05;53.55;39.84;69.38;;
36217;Laerm;22259;48.792;8.964;2023-08-17T09:50:31;41.17;38.41;48.46;;
36217;Laerm;22259;48.792;8.964;2023-08-17T09:52:56;41.01;38.13;47.97;;
36217;Laerm;22259;48.792;8.964;2023-08-17T09:55:22;41.07;38.47;54.15;;
36217;Laerm;22259;48.792;8.964;2023-08-17T09:57:51;40.66;38.17;47.80;;
36217;Laerm;22259;48.792;8.964;2023-08-17T10:00:17;54.25;37.96;72.15;;
36217;Laerm;22259;48.792;8.964;2023-08-17T10:02:44;51.84;38.85;68.95;;
36217;Laerm;22259;48.792;8.964;2023-08-17T10:05:11;40.78;38.29;49.72;;
36217;Laerm;22259;48.792;8.964;2023-08-17T10:07:36;41.19;37.56;57.73;;
36217;Laerm;22259;48.792;8.964;2023-08-17T10:10:04;41.63;38.98;53.17;;
36217;Laerm;22259;48.792;8.964;2023-08-17T10:12:31;40.73;38.01;50.97;;
36217;Laerm;22259;48.792;8.964;2023-08-17T10:14:59;55.40;38.74;71.80;;
36217;Laerm;22259;48.792;8.964;2023-08-17T10:17:29;53.89;39.25;69.66;;
36217;Laerm;22259;48.792;8.964;2023-08-17T10:19:58;41.44;38.60;46.60;;
36217;Laerm;22259;48.792;8.964;2023-08-17T10:22:39;41.18;38.56;63.62;;
36217;Laerm;22259;48.792;8.964;2023-08-17T10:25:10;41.24;38.60;49.66;;
36217;Laerm;22259;48.792;8.964;2023-08-17T10:27:37;41.82;38.63;59.76;;
36217;Laerm;22259;48.792;8.964;2023-08-17T10:30:02;52.64;39.18;69.37;;
36217;Laerm;22259;48.792;8.964;2023-08-17T10:32:28;51.21;38.99;66.95;;
36217;Laerm;22259;48.792;8.964;2023-08-17T10:34:53;41.16;38.71;58.20;;
36217;Laerm;22259;48.792;8.964;2023-08-17T10:37:19;40.81;38.29;55.56;;
36217;Laerm;22259;48.792;8.964;2023-08-17T10:39:46;41.64;38.52;51.13;;
36217;Laerm;22259;48.792;8.964;2023-08-17T10:42:12;41.28;38.49;50.62;;
36217;Laerm;22259;48.792;8.964;2023-08-17T10:44:38;45.11;39.49;62.44;;
36217;Laerm;22259;48.792;8.964;2023-08-17T10:49:50;44.55;39.61;58.25;;
36217;Laerm;22259;48.792;8.964;2023-08-17T10:52:18;41.97;39.02;50.44;;
36217;Laerm;22259;48.792;8.964;2023-08-17T10:54:49;41.05;38.45;51.24;;
36217;Laerm;22259;48.792;8.964;2023-08-17T10:57:25;41.09;38.49;60.13;;
36217;Laerm;22259;48.792;8.964;2023-08-17T11:02:38;51.97;38.37;68.34;;
36217;Laerm;22259;48.792;8.964;2023-08-17T11:05:04;43.39;39.15;57.86;;
36217;Laerm;22259;48.792;8.964;2023-08-17T11:07:38;41.83;38.45;51.32;;
36217;Laerm;22259;48.792;8.964;2023-08-17T11:16:01;49.68;38.25;67.72;;
36217;Laerm;22259;48.792;8.964;2023-08-17T11:18:27;56.60;38.85;72.48;;
36217;Laerm;22259;48.792;8.964;2023-08-17T11:20:53;49.62;38.71;61.59;;
36217;Laerm;22259;48.792;8.964;2023-08-17T11:23:18;42.03;38.98;47.82;;
36217;Laerm;22259;48.792;8.964;2023-08-17T11:25:44;44.28;39.15;58.13;;
36217;Laerm;22259;48.792;8.964;2023-08-17T11:28:09;41.43;38.98;51.06;;
36217;Laerm;22259;48.792;8.964;2023-08-17T11:30:35;54.95;39.15;70.88;;
36217;Laerm;22259;48.792;8.964;2023-08-17T11:33:03;50.42;39.34;69.51;;
36217;Laerm;22259;48.792;8.964;2023-08-17T11:35:28;41.27;38.60;53.79;;
36217;Laerm;22259;48.792;8.964;2023-08-17T11:37:53;41.85;37.88;54.78;;
36217;Laerm;22259;48.792;8.964;2023-08-17T11:40:19;41.80;38.01;57.57;;
36217;Laerm;22259;48.792;8.964;2023-08-17T11:42:44;41.31;38.71;51.36;;
36217;Laerm;22259;48.792;8.964;2023-08-17T11:45:10;55.02;38.36;70.28;;
36217;Laerm;22259;48.792;8.964;2023-08-17T11:47:39;55.53;39.15;67.98;;
36217;Laerm;22259;48.792;8.964;2023-08-17T11:50:05;48.74;39.34;63.63;;
36217;Laerm;22259;48.792;8.964;2023-08-17T11:52:30;40.65;38.09;50.43;;
36217;Laerm;22259;48.792;8.964;2023-08-17T11:55:01;41.90;38.45;49.77;;
36217;Laerm;22259;48.792;8.964;2023-08-17T11:57:27;41.00;38.45;50.65;;
36217;Laerm;22259;48.792;8.964;2023-08-17T11:59:56;54.34;38.37;69.96;;
36217;Laerm;22259;48.792;8.964;2023-08-17T12:02:25;51.36;38.09;66.31;;
36217;Laerm;22259;48.792;8.964;2023-08-17T12:04:51;41.19;38.45;49.98;;
36217;Laerm;22259;48.792;8.964;2023-08-17T12:07:17;41.01;38.01;47.87;;
36217;Laerm;22259;48.792;8.964;2023-08-17T12:09:43;40.98;38.13;57.35;;
36217;Laerm;22259;48.792;8.964;2023-08-17T12:12:09;41.04;37.79;50.80;;
36217;Laerm;22259;48.792;8.964;2023-08-17T12:14:35;42.65;39.37;54.95;;
36217;Laerm;22259;48.792;8.964;2023-08-17T12:17:00;51.99;39.34;66.59;;
36217;Laerm;22259;48.792;8.964;2023-08-17T12:19:26;53.79;40.55;68.29;;
36217;Laerm;22259;48.792;8.964;2023-08-17T12:21:51;43.96;41.16;53.72;;
36217;Laerm;22259;48.792;8.964;2023-08-17T12:24:16;57.04;41.59;76.47;;
36217;Laerm;22259;48.792;8.964;2023-08-17T12:26:45;44.76;41.02;57.32;;
36217;Laerm;22259;48.792;8.964;2023-08-17T12:29:11;45.67;41.12;57.56;;
36217;Laerm;22259;48.792;8.964;2023-08-17T12:31:36;55.51;41.06;76.81;;
36217;Laerm;22259;48.792;8.964;2023-08-17T12:34:02;50.33;41.53;71.58;;
36217;Laerm;22259;48.792;8.964;2023-08-17T12:36:28;49.07;42.74;71.86;;
36217;Laerm;22259;48.792;8.964;2023-08-17T12:38:54;57.74;43.09;78.44;;
36217;Laerm;22259;48.792;8.964;2023-08-17T12:41:19;63.46;47.87;92.14;;
36217;Laerm;22259;48.792;8.964;2023-08-17T12:43:45;64.40;51.00;92.03;;
36217;Laerm;22259;48.792;8.964;2023-08-17T12:46:10;67.82;57.95;91.45;;
36217;Laerm;22259;48.792;8.964;2023-08-17T12:48:38;74.41;55.39;101.55;;
36217;Laerm;22259;48.792;8.964;2023-08-17T12:51:03;64.29;53.81;89.81;;
36217;Laerm;22259;48.792;8.964;2023-08-17T12:53:29;67.79;55.86;99.11;;
36217;Laerm;22259;48.792;8.964;2023-08-17T12:55:54;68.67;58.90;92.91;;
36217;Laerm;22259;48.792;8.964;2023-08-17T12:58:20;63.92;56.13;88.60;;
36217;Laerm;22259;48.792;8.964;2023-08-17T13:00:45;66.75;58.32;91.92;;
36217;Laerm;22259;48.792;8.964;2023-08-17T13:03:10;67.01;55.44;92.77;;
36217;Laerm;22259;48.792;8.964;2023-08-17T13:05:36;61.51;50.26;90.15;;
36217;Laerm;22259;48.792;8.964;2023-08-17T13:08:01;68.80;49.18;99.32;;
36217;Laerm;22259;48.792;8.964;2023-08-17T13:10:27;57.43;49.33;85.31;;
36217;Laerm;22259;48.792;8.964;2023-08-17T13:12:52;54.49;47.80;78.89;;
36217;Laerm;22259;48.792;8.964;2023-08-17T13:15:21;56.16;47.66;79.31;;
36217;Laerm;22259;48.792;8.964;2023-08-17T13:17:47;57.76;43.70;80.53;;
36217;Laerm;22259;48.792;8.964;2023-08-17T13:20:13;53.99;42.96;70.78;;
36217;Laerm;22259;48.792;8.964;2023-08-17T13:22:38;55.65;42.44;69.79;;
36217;Laerm;22259;48.792;8.964;2023-08-17T13:25:04;48.21;41.91;67.35;;
36217;Laerm;22259;48.792;8.964;2023-08-17T13:27:29;46.64;41.98;61.27;;
36217;Laerm;22259;48.792;8.964;2023-08-17T13:29:55;53.48;41.38;72.65;;
36217;Laerm;22259;48.792;8.964;2023-08-17T13:32:20;52.64;41.72;68.94;;
36217;Laerm;22259;48.792;8.964;2023-08-17T13:34:45;45.98;41.91;63.85;;
36217;Laerm;22259;48.792;8.964;2023-08-17T13:37:11;44.80;41.44;60.26;;
36217;Laerm;22259;48.792;8.964;2023-08-17T13:39:36;60.69;41.89;96.61;;
36217;Laerm;22259;48.792;8.964;2023-08-17T13:42:02;56.09;41.57;91.74;;
36217;Laerm;22259;48.792;8.964;2023-08-17T13:44:27;55.31;41.79;73.17;;
36217;Laerm;22259;48.792;8.964;2023-08-17T13:46:52;46.94;41.44;66.12;;
36217;Laerm;22259;48.792;8.964;2023-08-17T13:49:18;60.19;42.04;75.86;;